Lawson Army Air Field (Fort Benning)
KLSF : now visible

Airfield :











YOU CAN JOIN US ON...

 
LOGIN :

Register | Disclaimer

   EN    FR    IT 

 









Legend :    VFR   Marginal VFR   IFR   Intensive IFR   Very Intensive IFR
Visi :
Ceiling :
>= 8 km
>= 3000ft
5 to 8 km
1000 to 3000 ft
1500m to 5 km
500 to 1000 ft
800 to 1500m
200 to 500 ft
< 800m
< 200 ft
Symbols :   Thunderstorms  Fog  Heavy snow  Heavy precipitations  Wind > 20 kt






- Airport Elevation : 232 ft


KLSF - Lawson Army Air Field (Fort Benning)

CURRENT METAR :
  • 162155Z AUTO 33010KT 10SM CLR 33/20 A2985 RMK AO2 SLP111 T03300198 $

EXPIRED METARs :
  • 162055Z AUTO 36009KT 10SM CLR 34/19 A2985 RMK AO2 SLP111 T03350192 $
  • 161956Z AUTO 33005KT 10SM CLR 33/20 A2987 RMK AO2 SLP117 T03320200 $

TAF TAF KLSF
Valid from the 16 at 21:00 until the 18 at 03:00 UTC


162100Z 1621/1803 33009KT 9999 FEW250 QNH2984INS
BECMG 1707/1708 VRB06KT 4800 BR SCT200 QNH2990INS
TEMPO 1708/1711 1600 BR FEW000
BECMG 1712/1713 04009KT 9999 SCT040 QNH2990INS
BECMG 1801/1802 06006KT 9999 VCTS SCT040CB QNH2988INS TX33/1621Z TN20/1710Z LAST NO AMDS AFT 1703 NEXT 1713
KZTL FIR / North America



MET'MAP, your aeronautical weather chart ! - Copyright ORBIFLY December 2007 - Disclaimer

ORBIFLY MET'MAP TEAM :

Programming & Development : Alexandra Zaïnal
Original concept : Baudouin d'Aumeries
Technical & hardware support : Manuel Goepfert
Assistance : Marc-Olivier Méhu




SOURCES & CREDITS :

   NOAA       Earth
Advisory